sensor_id;sensor_type;location;lat;lon;timestamp;temperature;humidity
19809;DHT22;48538;32.784;-96.802;2024-03-07T00:00:09;23.00;99.90
19809;DHT22;48538;32.784;-96.802;2024-03-07T00:02:46;23.00;99.90
19809;DHT22;48538;32.784;-96.802;2024-03-07T00:05:16;22.90;99.90
19809;DHT22;48538;32.784;-96.802;2024-03-07T00:07:43;22.90;99.90
19809;DHT22;48538;32.784;-96.802;2024-03-07T00:10:10;22.90;99.90
19809;DHT22;48538;32.784;-96.802;2024-03-07T00:12:40;22.90;99.90
19809;DHT22;48538;32.784;-96.802;2024-03-07T00:15:07;22.80;99.90
19809;DHT22;48538;32.784;-96.802;2024-03-07T00:17:35;22.80;99.90
19809;DHT22;48538;32.784;-96.802;2024-03-07T00:20:02;22.80;99.90
19809;DHT22;48538;32.784;-96.802;2024-03-07T00:22:30;22.70;99.90
19809;DHT22;48538;32.784;-96.802;2024-03-07T00:24:57;22.70;99.90
19809;DHT22;48538;32.784;-96.802;2024-03-07T00:27:23;22.70;99.90
19809;DHT22;48538;32.784;-96.802;2024-03-07T00:29:49;22.60;99.90
19809;DHT22;48538;32.784;-96.802;2024-03-07T00:32:23;22.60;99.90
19809;DHT22;48538;32.784;-96.802;2024-03-07T00:34:50;22.60;99.90
19809;DHT22;48538;32.784;-96.802;2024-03-07T00:37:16;22.50;99.90
19809;DHT22;48538;32.784;-96.802;2024-03-07T00:39:43;22.50;99.90
19809;DHT22;48538;32.784;-96.802;2024-03-07T00:42:10;22.50;99.90
19809;DHT22;48538;32.784;-96.802;2024-03-07T00:44:36;22.50;99.90
19809;DHT22;48538;32.784;-96.802;2024-03-07T00:47:03;22.40;99.90
19809;DHT22;48538;32.784;-96.802;2024-03-07T00:49:30;22.40;99.90
19809;DHT22;48538;32.784;-96.802;2024-03-07T00:51:58;22.40;99.90
19809;DHT22;48538;32.784;-96.802;2024-03-07T00:54:25;22.40;99.90
19809;DHT22;48538;32.784;-96.802;2024-03-07T00:56:51;22.30;99.90
19809;DHT22;48538;32.784;-96.802;2024-03-07T00:59:18;22.30;99.90
19809;DHT22;48538;32.784;-96.802;2024-03-07T01:01:45;22.30;99.90
19809;DHT22;48538;32.784;-96.802;2024-03-07T01:04:11;22.30;99.90
19809;DHT22;48538;32.784;-96.802;2024-03-07T01:06:37;22.30;99.90
19809;DHT22;48538;32.784;-96.802;2024-03-07T01:09:04;22.30;99.90
19809;DHT22;48538;32.784;-96.802;2024-03-07T01:11:30;22.30;99.90
19809;DHT22;48538;32.784;-96.802;2024-03-07T01:13:57;22.20;99.90
19809;DHT22;48538;32.784;-96.802;2024-03-07T01:16:23;22.20;99.90
19809;DHT22;48538;32.784;-96.802;2024-03-07T01:18:49;22.20;99.90
19809;DHT22;48538;32.784;-96.802;2024-03-07T01:21:15;22.20;99.90
19809;DHT22;48538;32.784;-96.802;2024-03-07T01:23:42;22.20;99.90
19809;DHT22;48538;32.784;-96.802;2024-03-07T01:26:08;22.20;99.90
19809;DHT22;48538;32.784;-96.802;2024-03-07T01:28:34;22.30;99.90
19809;DHT22;48538;32.784;-96.802;2024-03-07T01:31:01;22.20;99.90
19809;DHT22;48538;32.784;-96.802;2024-03-07T01:33:27;22.20;99.90
19809;DHT22;48538;32.784;-96.802;2024-03-07T01:35:54;22.20;99.90
19809;DHT22;48538;32.784;-96.802;2024-03-07T01:38:20;22.20;99.90
19809;DHT22;48538;32.784;-96.802;2024-03-07T01:40:47;22.20;99.90
19809;DHT22;48538;32.784;-96.802;2024-03-07T01:43:13;22.20;99.90
19809;DHT22;48538;32.784;-96.802;2024-03-07T01:45:39;22.20;99.90
19809;DHT22;48538;32.784;-96.802;2024-03-07T01:48:07;22.20;99.90
19809;DHT22;48538;32.784;-96.802;2024-03-07T01:50:35;22.20;99.90
19809;DHT22;48538;32.784;-96.802;2024-03-07T01:53:06;22.20;99.90
19809;DHT22;48538;32.784;-96.802;2024-03-07T01:55:34;22.20;99.90
19809;DHT22;48538;32.784;-96.802;2024-03-07T01:58:02;22.20;99.90
19809;DHT22;48538;32.784;-96.802;2024-03-07T02:00:30;22.20;99.90
19809;DHT22;48538;32.784;-96.802;2024-03-07T02:02:57;22.20;99.90
19809;DHT22;48538;32.784;-96.802;2024-03-07T02:05:24;22.30;99.90
19809;DHT22;48538;32.784;-96.802;2024-03-07T02:07:50;22.20;99.90
19809;DHT22;48538;32.784;-96.802;2024-03-07T02:10:17;22.20;99.90
19809;DHT22;48538;32.784;-96.802;2024-03-07T02:12:44;22.20;99.90
19809;DHT22;48538;32.784;-96.802;2024-03-07T02:15:13;22.20;99.90
19809;DHT22;48538;32.784;-96.802;2024-03-07T02:17:39;22.20;99.90
19809;DHT22;48538;32.784;-96.802;2024-03-07T02:20:07;22.20;99.90
19809;DHT22;48538;32.784;-96.802;2024-03-07T02:22:34;22.20;99.90
19809;DHT22;48538;32.784;-96.802;2024-03-07T02:25:00;22.20;99.90
19809;DHT22;48538;32.784;-96.802;2024-03-07T02:27:26;22.20;99.90
19809;DHT22;48538;32.784;-96.802;2024-03-07T02:29:52;22.20;99.90
19809;DHT22;48538;32.784;-96.802;2024-03-07T02:32:19;22.10;99.90
19809;DHT22;48538;32.784;-96.802;2024-03-07T02:34:45;22.10;99.90
19809;DHT22;48538;32.784;-96.802;2024-03-07T02:37:12;22.10;99.90
19809;DHT22;48538;32.784;-96.802;2024-03-07T02:39:39;22.10;99.90
19809;DHT22;48538;32.784;-96.802;2024-03-07T02:42:06;22.20;99.90
19809;DHT22;48538;32.784;-96.802;2024-03-07T02:44:32;22.10;99.90
19809;DHT22;48538;32.784;-96.802;2024-03-07T02:46:59;22.20;99.90
19809;DHT22;48538;32.784;-96.802;2024-03-07T02:49:28;22.10;99.90
19809;DHT22;48538;32.784;-96.802;2024-03-07T02:51:55;22.20;99.90
19809;DHT22;48538;32.784;-96.802;2024-03-07T02:54:21;22.10;99.90
19809;DHT22;48538;32.784;-96.802;2024-03-07T02:56:47;22.10;99.90
19809;DHT22;48538;32.784;-96.802;2024-03-07T02:59:14;22.10;99.90
19809;DHT22;48538;32.784;-96.802;2024-03-07T03:01:40;22.10;99.90
19809;DHT22;48538;32.784;-96.802;2024-03-07T03:04:06;22.10;99.90
19809;DHT22;48538;32.784;-96.802;2024-03-07T03:06:33;22.10;99.90
19809;DHT22;48538;32.784;-96.802;2024-03-07T03:08:59;22.10;99.90
19809;DHT22;48538;32.784;-96.802;2024-03-07T03:11:26;22.10;99.90
19809;DHT22;48538;32.784;-96.802;2024-03-07T03:13:53;22.10;99.90
19809;DHT22;48538;32.784;-96.802;2024-03-07T03:16:19;22.10;99.90
19809;DHT22;48538;32.784;-96.802;2024-03-07T03:18:46;22.10;99.90
19809;DHT22;48538;32.784;-96.802;2024-03-07T03:21:14;22.10;99.90
19809;DHT22;48538;32.784;-96.802;2024-03-07T03:23:41;22.10;99.90
19809;DHT22;48538;32.784;-96.802;2024-03-07T03:26:08;22.10;99.90
19809;DHT22;48538;32.784;-96.802;2024-03-07T03:28:34;22.10;99.90
19809;DHT22;48538;32.784;-96.802;2024-03-07T03:31:00;22.10;99.90
19809;DHT22;48538;32.784;-96.802;2024-03-07T03:33:26;22.10;99.90
19809;DHT22;48538;32.784;-96.802;2024-03-07T03:35:53;22.00;99.90
19809;DHT22;48538;32.784;-96.802;2024-03-07T03:38:21;22.00;99.90
19809;DHT22;48538;32.784;-96.802;2024-03-07T03:40:47;21.90;99.90
19809;DHT22;48538;32.784;-96.802;2024-03-07T03:43:13;21.90;99.90
19809;DHT22;48538;32.784;-96.802;2024-03-07T03:45:41;21.90;99.90
19809;DHT22;48538;32.784;-96.802;2024-03-07T03:48:07;21.90;99.90
19809;DHT22;48538;32.784;-96.802;2024-03-07T03:50:34;21.90;99.90
19809;DHT22;48538;32.784;-96.802;2024-03-07T03:53:00;21.90;99.90
19809;DHT22;48538;32.784;-96.802;2024-03-07T03:55:27;21.90;99.90
19809;DHT22;48538;32.784;-96.802;2024-03-07T03:57:54;21.90;99.90
19809;DHT22;48538;32.784;-96.802;2024-03-07T04:00:21;22.20;99.90
19809;DHT22;48538;32.784;-96.802;2024-03-07T04:02:48;22.30;99.90
19809;DHT22;48538;32.784;-96.802;2024-03-07T04:05:18;22.30;99.90
19809;DHT22;48538;32.784;-96.802;2024-03-07T04:07:45;22.00;99.90
19809;DHT22;48538;32.784;-96.802;2024-03-07T04:10:12;21.60;99.90
19809;DHT22;48538;32.784;-96.802;2024-03-07T04:12:40;21.20;99.90
19809;DHT22;48538;32.784;-96.802;2024-03-07T04:15:08;20.80;99.90
19809;DHT22;48538;32.784;-96.802;2024-03-07T04:17:36;20.20;99.90
19809;DHT22;48538;32.784;-96.802;2024-03-07T04:20:07;19.90;99.90
19809;DHT22;48538;32.784;-96.802;2024-03-07T04:22:37;19.70;99.90
19809;DHT22;48538;32.784;-96.802;2024-03-07T04:25:07;19.50;99.90
19809;DHT22;48538;32.784;-96.802;2024-03-07T04:27:34;19.40;99.90
19809;DHT22;48538;32.784;-96.802;2024-03-07T04:30:08;19.50;99.90
19809;DHT22;48538;32.784;-96.802;2024-03-07T04:32:38;19.50;99.90
19809;DHT22;48538;32.784;-96.802;2024-03-07T04:35:05;19.50;99.90
19809;DHT22;48538;32.784;-96.802;2024-03-07T04:37:37;19.50;99.90
19809;DHT22;48538;32.784;-96.802;2024-03-07T04:40:04;19.60;99.90
19809;DHT22;48538;32.784;-96.802;2024-03-07T04:42:45;19.60;99.90
19809;DHT22;48538;32.784;-96.802;2024-03-07T04:45:12;19.70;99.90
19809;DHT22;48538;32.784;-96.802;2024-03-07T04:47:42;19.70;99.90
19809;DHT22;48538;32.784;-96.802;2024-03-07T04:50:11;19.70;99.90
19809;DHT22;48538;32.784;-96.802;2024-03-07T04:52:41;19.90;99.90
19809;DHT22;48538;32.784;-96.802;2024-03-07T04:55:09;20.10;99.90
19809;DHT22;48538;32.784;-96.802;2024-03-07T04:57:39;20.20;99.90
19809;DHT22;48538;32.784;-96.802;2024-03-07T05:00:08;20.30;99.90
19809;DHT22;48538;32.784;-96.802;2024-03-07T05:02:43;20.40;99.90
19809;DHT22;48538;32.784;-96.802;2024-03-07T05:05:10;20.50;99.90
19809;DHT22;48538;32.784;-96.802;2024-03-07T05:07:36;20.60;99.90
19809;DHT22;48538;32.784;-96.802;2024-03-07T05:10:04;20.60;99.90
19809;DHT22;48538;32.784;-96.802;2024-03-07T05:12:31;20.60;99.90
19809;DHT22;48538;32.784;-96.802;2024-03-07T05:14:57;20.70;99.90
19809;DHT22;48538;32.784;-96.802;2024-03-07T05:17:23;20.60;99.90
19809;DHT22;48538;32.784;-96.802;2024-03-07T05:19:50;20.70;99.90
19809;DHT22;48538;32.784;-96.802;2024-03-07T05:22:16;20.70;99.90
19809;DHT22;48538;32.784;-96.802;2024-03-07T05:24:44;20.70;99.90
19809;DHT22;48538;32.784;-96.802;2024-03-07T05:27:10;20.70;99.90
19809;DHT22;48538;32.784;-96.802;2024-03-07T05:29:40;20.70;99.90
19809;DHT22;48538;32.784;-96.802;2024-03-07T05:32:24;20.70;99.90
19809;DHT22;48538;32.784;-96.802;2024-03-07T05:34:54;20.70;99.90
19809;DHT22;48538;32.784;-96.802;2024-03-07T05:37:21;20.80;99.90
19809;DHT22;48538;32.784;-96.802;2024-03-07T05:39:48;20.70;99.90
19809;DHT22;48538;32.784;-96.802;2024-03-07T05:42:15;20.70;99.90
19809;DHT22;48538;32.784;-96.802;2024-03-07T05:44:42;20.80;99.90
19809;DHT22;48538;32.784;-96.802;2024-03-07T05:47:08;20.70;99.90
19809;DHT22;48538;32.784;-96.802;2024-03-07T05:49:35;20.60;99.90
19809;DHT22;48538;32.784;-96.802;2024-03-07T05:52:05;20.70;99.90
19809;DHT22;48538;32.784;-96.802;2024-03-07T05:54:32;20.70;99.90
19809;DHT22;48538;32.784;-96.802;2024-03-07T05:56:58;20.70;99.90
19809;DHT22;48538;32.784;-96.802;2024-03-07T05:59:26;20.70;99.90
19809;DHT22;48538;32.784;-96.802;2024-03-07T06:01:56;20.70;99.90
19809;DHT22;48538;32.784;-96.802;2024-03-07T06:04:23;20.70;99.90
19809;DHT22;48538;32.784;-96.802;2024-03-07T06:06:49;20.60;99.90
19809;DHT22;48538;32.784;-96.802;2024-03-07T06:09:16;20.70;99.90
19809;DHT22;48538;32.784;-96.802;2024-03-07T06:11:47;20.60;99.90
19809;DHT22;48538;32.784;-96.802;2024-03-07T06:14:14;20.60;99.90
19809;DHT22;48538;32.784;-96.802;2024-03-07T06:16:40;20.50;99.90
19809;DHT22;48538;32.784;-96.802;2024-03-07T06:19:09;20.60;99.90
19809;DHT22;48538;32.784;-96.802;2024-03-07T06:21:38;20.50;99.90
19809;DHT22;48538;32.784;-96.802;2024-03-07T06:24:07;20.60;99.90
19809;DHT22;48538;32.784;-96.802;2024-03-07T06:26:36;20.60;99.90
19809;DHT22;48538;32.784;-96.802;2024-03-07T06:29:06;20.50;99.90
19809;DHT22;48538;32.784;-96.802;2024-03-07T06:31:33;20.60;99.90
19809;DHT22;48538;32.784;-96.802;2024-03-07T06:34:00;20.60;99.90
19809;DHT22;48538;32.784;-96.802;2024-03-07T06:36:26;20.60;99.90
19809;DHT22;48538;32.784;-96.802;2024-03-07T06:38:54;20.60;99.90
19809;DHT22;48538;32.784;-96.802;2024-03-07T06:41:20;20.50;99.90
19809;DHT22;48538;32.784;-96.802;2024-03-07T06:43:47;20.50;99.90
19809;DHT22;48538;32.784;-96.802;2024-03-07T06:46:15;20.50;99.90
19809;DHT22;48538;32.784;-96.802;2024-03-07T06:48:44;20.50;99.90
19809;DHT22;48538;32.784;-96.802;2024-03-07T06:51:11;20.50;99.90
19809;DHT22;48538;32.784;-96.802;2024-03-07T06:53:38;20.50;99.90
19809;DHT22;48538;32.784;-96.802;2024-03-07T06:56:05;20.50;99.90
19809;DHT22;48538;32.784;-96.802;2024-03-07T06:58:32;20.50;99.90
19809;DHT22;48538;32.784;-96.802;2024-03-07T07:01:00;20.50;99.90
19809;DHT22;48538;32.784;-96.802;2024-03-07T07:03:27;20.50;99.90
19809;DHT22;48538;32.784;-96.802;2024-03-07T07:05:58;20.60;99.90
19809;DHT22;48538;32.784;-96.802;2024-03-07T07:08:24;20.60;99.90
19809;DHT22;48538;32.784;-96.802;2024-03-07T07:10:50;20.60;99.90
19809;DHT22;48538;32.784;-96.802;2024-03-07T07:13:20;20.70;99.90
19809;DHT22;48538;32.784;-96.802;2024-03-07T07:15:46;20.70;99.90
19809;DHT22;48538;32.784;-96.802;2024-03-07T07:18:12;20.70;99.90
19809;DHT22;48538;32.784;-96.802;2024-03-07T07:20:39;20.80;99.90
19809;DHT22;48538;32.784;-96.802;2024-03-07T07:23:06;20.80;99.90
19809;DHT22;48538;32.784;-96.802;2024-03-07T07:25:32;20.90;99.90
19809;DHT22;48538;32.784;-96.802;2024-03-07T07:27:59;20.90;99.90
19809;DHT22;48538;32.784;-96.802;2024-03-07T07:30:25;20.90;99.90
19809;DHT22;48538;32.784;-96.802;2024-03-07T07:32:55;21.00;99.90
19809;DHT22;48538;32.784;-96.802;2024-03-07T07:35:21;21.00;99.90
19809;DHT22;48538;32.784;-96.802;2024-03-07T07:37:50;21.00;99.90
19809;DHT22;48538;32.784;-96.802;2024-03-07T07:40:20;21.00;99.90
19809;DHT22;48538;32.784;-96.802;2024-03-07T07:42:50;21.00;99.90
19809;DHT22;48538;32.784;-96.802;2024-03-07T07:45:18;21.00;99.90
19809;DHT22;48538;32.784;-96.802;2024-03-07T07:47:49;21.00;99.90
19809;DHT22;48538;32.784;-96.802;2024-03-07T07:50:17;21.10;99.90
19809;DHT22;48538;32.784;-96.802;2024-03-07T07:52:46;21.10;99.90
19809;DHT22;48538;32.784;-96.802;2024-03-07T07:55:17;21.00;99.90
19809;DHT22;48538;32.784;-96.802;2024-03-07T07:57:45;21.00;99.90
19809;DHT22;48538;32.784;-96.802;2024-03-07T08:00:16;21.00;99.90
19809;DHT22;48538;32.784;-96.802;2024-03-07T08:02:53;21.00;99.90
19809;DHT22;48538;32.784;-96.802;2024-03-07T08:05:21;20.90;99.90
19809;DHT22;48538;32.784;-96.802;2024-03-07T08:07:50;20.90;99.90
19809;DHT22;48538;32.784;-96.802;2024-03-07T08:10:21;20.90;99.90
19809;DHT22;48538;32.784;-96.802;2024-03-07T08:12:49;20.90;99.90
19809;DHT22;48538;32.784;-96.802;2024-03-07T08:15:16;20.80;99.90
19809;DHT22;48538;32.784;-96.802;2024-03-07T08:17:44;20.90;99.90
19809;DHT22;48538;32.784;-96.802;2024-03-07T08:20:12;20.80;99.90
19809;DHT22;48538;32.784;-96.802;2024-03-07T08:22:42;20.90;99.90
19809;DHT22;48538;32.784;-96.802;2024-03-07T08:25:15;20.90;99.90
19809;DHT22;48538;32.784;-96.802;2024-03-07T08:27:43;20.80;99.90
19809;DHT22;48538;32.784;-96.802;2024-03-07T08:30:10;20.80;99.90
19809;DHT22;48538;32.784;-96.802;2024-03-07T08:32:44;20.80;99.90
19809;DHT22;48538;32.784;-96.802;2024-03-07T08:35:11;20.80;99.90
19809;DHT22;48538;32.784;-96.802;2024-03-07T08:37:41;20.70;99.90
19809;DHT22;48538;32.784;-96.802;2024-03-07T08:40:09;20.80;99.90
19809;DHT22;48538;32.784;-96.802;2024-03-07T08:42:52;20.70;99.90
19809;DHT22;48538;32.784;-96.802;2024-03-07T08:45:20;20.80;99.90
19809;DHT22;48538;32.784;-96.802;2024-03-07T08:47:48;20.60;99.90
19809;DHT22;48538;32.784;-96.802;2024-03-07T08:50:15;20.60;99.90
19809;DHT22;48538;32.784;-96.802;2024-03-07T08:52:44;20.50;99.90
19809;DHT22;48538;32.784;-96.802;2024-03-07T08:55:13;20.50;99.90
19809;DHT22;48538;32.784;-96.802;2024-03-07T08:57:43;20.50;99.90
19809;DHT22;48538;32.784;-96.802;2024-03-07T09:00:12;20.50;99.90
19809;DHT22;48538;32.784;-96.802;2024-03-07T09:02:50;20.60;99.90
19809;DHT22;48538;32.784;-96.802;2024-03-07T09:05:23;20.60;99.90
19809;DHT22;48538;32.784;-96.802;2024-03-07T09:07:50;20.60;99.90
19809;DHT22;48538;32.784;-96.802;2024-03-07T09:10:17;20.50;99.90
19809;DHT22;48538;32.784;-96.802;2024-03-07T09:12:44;20.60;99.90
19809;DHT22;48538;32.784;-96.802;2024-03-07T09:15:11;20.60;99.90
19809;DHT22;48538;32.784;-96.802;2024-03-07T09:17:42;20.50;99.90
19809;DHT22;48538;32.784;-96.802;2024-03-07T09:20:08;20.50;99.90
19809;DHT22;48538;32.784;-96.802;2024-03-07T09:22:41;20.50;99.90
19809;DHT22;48538;32.784;-96.802;2024-03-07T09:25:08;20.50;99.90
19809;DHT22;48538;32.784;-96.802;2024-03-07T09:27:35;20.50;99.90
19809;DHT22;48538;32.784;-96.802;2024-03-07T09:30:01;20.40;99.90
19809;DHT22;48538;32.784;-96.802;2024-03-07T09:32:27;20.40;99.90
19809;DHT22;48538;32.784;-96.802;2024-03-07T09:34:59;20.40;99.90
19809;DHT22;48538;32.784;-96.802;2024-03-07T09:37:26;20.40;99.90
19809;DHT22;48538;32.784;-96.802;2024-03-07T09:39:53;20.50;99.90
19809;DHT22;48538;32.784;-96.802;2024-03-07T09:42:19;20.50;99.90
19809;DHT22;48538;32.784;-96.802;2024-03-07T09:44:48;20.40;99.90
19809;DHT22;48538;32.784;-96.802;2024-03-07T09:47:16;20.40;99.90
19809;DHT22;48538;32.784;-96.802;2024-03-07T09:49:42;20.50;99.90
19809;DHT22;48538;32.784;-96.802;2024-03-07T09:52:10;20.50;99.90
19809;DHT22;48538;32.784;-96.802;2024-03-07T09:54:41;20.50;99.90
19809;DHT22;48538;32.784;-96.802;2024-03-07T09:57:07;20.40;99.90
19809;DHT22;48538;32.784;-96.802;2024-03-07T09:59:35;20.50;99.90
19809;DHT22;48538;32.784;-96.802;2024-03-07T10:02:05;20.40;99.90
19809;DHT22;48538;32.784;-96.802;2024-03-07T10:04:42;20.40;99.90
19809;DHT22;48538;32.784;-96.802;2024-03-07T10:07:17;20.40;99.90
19809;DHT22;48538;32.784;-96.802;2024-03-07T10:09:44;20.40;99.90
19809;DHT22;48538;32.784;-96.802;2024-03-07T10:12:11;20.40;99.90
19809;DHT22;48538;32.784;-96.802;2024-03-07T10:14:50;20.40;99.90
19809;DHT22;48538;32.784;-96.802;2024-03-07T10:17:20;20.40;99.90
19809;DHT22;48538;32.784;-96.802;2024-03-07T10:19:49;20.40;99.90
19809;DHT22;48538;32.784;-96.802;2024-03-07T10:22:17;20.40;99.90
19809;DHT22;48538;32.784;-96.802;2024-03-07T10:24:51;20.40;99.90
19809;DHT22;48538;32.784;-96.802;2024-03-07T10:27:22;20.40;99.90
19809;DHT22;48538;32.784;-96.802;2024-03-07T10:29:51;20.40;99.90
19809;DHT22;48538;32.784;-96.802;2024-03-07T10:32:21;20.40;99.90
19809;DHT22;48538;32.784;-96.802;2024-03-07T10:34:52;20.40;99.90
19809;DHT22;48538;32.784;-96.802;2024-03-07T10:37:19;20.40;99.90
19809;DHT22;48538;32.784;-96.802;2024-03-07T10:39:50;20.40;99.90
19809;DHT22;48538;32.784;-96.802;2024-03-07T10:42:18;20.40;99.90
19809;DHT22;48538;32.784;-96.802;2024-03-07T10:44:46;20.40;99.90
19809;DHT22;48538;32.784;-96.802;2024-03-07T10:47:17;20.40;99.90
19809;DHT22;48538;32.784;-96.802;2024-03-07T10:49:59;20.30;99.90
19809;DHT22;48538;32.784;-96.802;2024-03-07T10:52:39;20.30;99.90
19809;DHT22;48538;32.784;-96.802;2024-03-07T10:55:40;20.30;99.90
19809;DHT22;48538;32.784;-96.802;2024-03-07T10:58:42;20.30;99.90
19809;DHT22;48538;32.784;-96.802;2024-03-07T11:01:13;20.20;99.90
19809;DHT22;48538;32.784;-96.802;2024-03-07T11:03:40;20.20;99.90
19809;DHT22;48538;32.784;-96.802;2024-03-07T11:06:08;20.10;99.90
19809;DHT22;48538;32.784;-96.802;2024-03-07T11:08:37;20.20;99.90
19809;DHT22;48538;32.784;-96.802;2024-03-07T11:11:04;20.10;99.90
19809;DHT22;48538;32.784;-96.802;2024-03-07T11:13:33;20.20;99.90
19809;DHT22;48538;32.784;-96.802;2024-03-07T11:16:01;20.20;99.90
19809;DHT22;48538;32.784;-96.802;2024-03-07T11:18:29;20.10;99.90
19809;DHT22;48538;32.784;-96.802;2024-03-07T11:20:55;20.20;99.90
19809;DHT22;48538;32.784;-96.802;2024-03-07T11:23:28;20.20;99.90
19809;DHT22;48538;32.784;-96.802;2024-03-07T11:26:12;20.20;99.90
19809;DHT22;48538;32.784;-96.802;2024-03-07T11:28:43;20.20;99.90
19809;DHT22;48538;32.784;-96.802;2024-03-07T11:31:13;20.20;99.90
19809;DHT22;48538;32.784;-96.802;2024-03-07T11:33:41;20.20;99.90
19809;DHT22;48538;32.784;-96.802;2024-03-07T11:36:11;20.10;99.90
19809;DHT22;48538;32.784;-96.802;2024-03-07T11:38:44;20.10;99.90
19809;DHT22;48538;32.784;-96.802;2024-03-07T11:41:10;20.10;99.90
19809;DHT22;48538;32.784;-96.802;2024-03-07T11:43:42;20.10;99.90
19809;DHT22;48538;32.784;-96.802;2024-03-07T11:46:09;20.10;99.90
19809;DHT22;48538;32.784;-96.802;2024-03-07T11:48:41;20.10;99.90
19809;DHT22;48538;32.784;-96.802;2024-03-07T11:51:07;20.10;99.90
19809;DHT22;48538;32.784;-96.802;2024-03-07T11:53:38;20.00;99.90
19809;DHT22;48538;32.784;-96.802;2024-03-07T11:56:05;20.00;99.90
19809;DHT22;48538;32.784;-96.802;2024-03-07T11:58:38;20.00;99.90
19809;DHT22;48538;32.784;-96.802;2024-03-07T12:01:08;20.00;99.90
19809;DHT22;48538;32.784;-96.802;2024-03-07T12:03:39;20.00;99.90
19809;DHT22;48538;32.784;-96.802;2024-03-07T12:06:07;19.90;99.90
19809;DHT22;48538;32.784;-96.802;2024-03-07T12:08:36;19.90;99.90
19809;DHT22;48538;32.784;-96.802;2024-03-07T12:11:02;20.00;99.90
19809;DHT22;48538;32.784;-96.802;2024-03-07T12:13:29;19.90;99.90
19809;DHT22;48538;32.784;-96.802;2024-03-07T12:15:56;19.90;99.90
19809;DHT22;48538;32.784;-96.802;2024-03-07T12:18:24;19.90;99.90
19809;DHT22;48538;32.784;-96.802;2024-03-07T12:20:51;19.90;99.90
19809;DHT22;48538;32.784;-96.802;2024-03-07T12:23:22;19.90;99.90
19809;DHT22;48538;32.784;-96.802;2024-03-07T12:26:02;19.90;99.90
19809;DHT22;48538;32.784;-96.802;2024-03-07T12:28:29;19.90;99.90
19809;DHT22;48538;32.784;-96.802;2024-03-07T12:30:59;19.90;99.90
19809;DHT22;48538;32.784;-96.802;2024-03-07T12:33:29;19.90;99.90
19809;DHT22;48538;32.784;-96.802;2024-03-07T12:35:57;20.00;99.90
19809;DHT22;48538;32.784;-96.802;2024-03-07T12:38:32;19.90;99.90
19809;DHT22;48538;32.784;-96.802;2024-03-07T12:41:10;20.00;99.90
19809;DHT22;48538;32.784;-96.802;2024-03-07T12:43:43;20.00;99.90
19809;DHT22;48538;32.784;-96.802;2024-03-07T12:46:11;19.90;99.90
19809;DHT22;48538;32.784;-96.802;2024-03-07T12:48:39;19.90;99.90
19809;DHT22;48538;32.784;-96.802;2024-03-07T12:51:06;20.00;99.90
19809;DHT22;48538;32.784;-96.802;2024-03-07T12:53:32;20.00;99.90
19809;DHT22;48538;32.784;-96.802;2024-03-07T12:56:00;19.90;99.90
19809;DHT22;48538;32.784;-96.802;2024-03-07T12:58:28;20.00;99.90
19809;DHT22;48538;32.784;-96.802;2024-03-07T13:00:56;19.90;99.90
19809;DHT22;48538;32.784;-96.802;2024-03-07T13:03:23;20.00;99.90
19809;DHT22;48538;32.784;-96.802;2024-03-07T13:05:59;20.00;99.90
19809;DHT22;48538;32.784;-96.802;2024-03-07T13:08:28;20.00;99.90
19809;DHT22;48538;32.784;-96.802;2024-03-07T13:10:57;20.00;99.90
19809;DHT22;48538;32.784;-96.802;2024-03-07T13:13:25;20.00;99.90
19809;DHT22;48538;32.784;-96.802;2024-03-07T13:15:51;20.00;99.90
19809;DHT22;48538;32.784;-96.802;2024-03-07T13:18:20;20.00;99.90
19809;DHT22;48538;32.784;-96.802;2024-03-07T13:20:47;20.00;99.90
19809;DHT22;48538;32.784;-96.802;2024-03-07T13:23:14;20.00;99.90
19809;DHT22;48538;32.784;-96.802;2024-03-07T13:25:40;20.10;99.90
19809;DHT22;48538;32.784;-96.802;2024-03-07T13:28:12;20.10;99.90
19809;DHT22;48538;32.784;-96.802;2024-03-07T13:30:43;20.10;99.90
19809;DHT22;48538;32.784;-96.802;2024-03-07T13:33:10;20.00;99.90
19809;DHT22;48538;32.784;-96.802;2024-03-07T13:35:40;20.00;99.90
19809;DHT22;48538;32.784;-96.802;2024-03-07T13:38:07;20.10;99.90
19809;DHT22;48538;32.784;-96.802;2024-03-07T13:40:34;20.00;99.90
19809;DHT22;48538;32.784;-96.802;2024-03-07T13:43:07;20.00;99.90
19809;DHT22;48538;32.784;-96.802;2024-03-07T13:45:35;20.10;99.90
19809;DHT22;48538;32.784;-96.802;2024-03-07T13:48:10;20.10;99.90
19809;DHT22;48538;32.784;-96.802;2024-03-07T13:50:39;20.10;99.90
19809;DHT22;48538;32.784;-96.802;2024-03-07T13:53:10;20.10;99.90
19809;DHT22;48538;32.784;-96.802;2024-03-07T13:56:11;20.10;99.90
19809;DHT22;48538;32.784;-96.802;2024-03-07T14:07:19;20.00;99.90
19809;DHT22;48538;32.784;-96.802;2024-03-07T14:13:30;20.00;99.90
19809;DHT22;48538;32.784;-96.802;2024-03-07T14:16:12;20.10;99.90
19809;DHT22;48538;32.784;-96.802;2024-03-07T14:30:53;20.00;99.90
19809;DHT22;48538;32.784;-96.802;2024-03-07T14:33:35;20.00;99.90
19809;DHT22;48538;32.784;-96.802;2024-03-07T14:36:14;20.10;99.90
19809;DHT22;48538;32.784;-96.802;2024-03-07T14:38:53;20.00;99.90
19809;DHT22;48538;32.784;-96.802;2024-03-07T14:44:06;19.90;99.90
19809;DHT22;48538;32.784;-96.802;2024-03-07T14:46:34;20.00;99.90
19809;DHT22;48538;32.784;-96.802;2024-03-07T14:49:00;19.90;99.90
19809;DHT22;48538;32.784;-96.802;2024-03-07T14:51:27;19.90;99.90
19809;DHT22;48538;32.784;-96.802;2024-03-07T14:53:53;19.90;99.90
19809;DHT22;48538;32.784;-96.802;2024-03-07T14:56:19;19.90;99.90
19809;DHT22;48538;32.784;-96.802;2024-03-07T14:58:46;19.90;99.90
19809;DHT22;48538;32.784;-96.802;2024-03-07T15:01:13;19.90;99.90
19809;DHT22;48538;32.784;-96.802;2024-03-07T15:03:39;19.90;99.90
19809;DHT22;48538;32.784;-96.802;2024-03-07T15:06:08;19.90;99.90
19809;DHT22;48538;32.784;-96.802;2024-03-07T15:08:35;19.90;99.90
19809;DHT22;48538;32.784;-96.802;2024-03-07T15:11:16;19.80;99.90
19809;DHT22;48538;32.784;-96.802;2024-03-07T15:13:46;19.80;99.90
19809;DHT22;48538;32.784;-96.802;2024-03-07T15:16:13;19.80;99.90
19809;DHT22;48538;32.784;-96.802;2024-03-07T15:18:40;19.80;99.90
19809;DHT22;48538;32.784;-96.802;2024-03-07T15:21:09;19.80;99.90
19809;DHT22;48538;32.784;-96.802;2024-03-07T15:23:41;19.80;99.90
19809;DHT22;48538;32.784;-96.802;2024-03-07T15:26:08;19.80;99.90
19809;DHT22;48538;32.784;-96.802;2024-03-07T15:28:35;19.70;99.90
19809;DHT22;48538;32.784;-96.802;2024-03-07T15:31:01;19.80;99.90
19809;DHT22;48538;32.784;-96.802;2024-03-07T15:33:35;19.70;99.90
19809;DHT22;48538;32.784;-96.802;2024-03-07T15:36:01;19.70;99.90
19809;DHT22;48538;32.784;-96.802;2024-03-07T15:38:31;19.70;99.90